createdAt,value
2023-05-12T00:00:13.205Z,100625.59
2023-05-12T00:02:41.941Z,100623.94
2023-05-12T00:05:09.213Z,100625.13
2023-05-12T00:07:36.524Z,100618.34
2023-05-12T00:10:04.132Z,100616.28
2023-05-12T00:12:31.141Z,100624.66
2023-05-12T00:14:58.197Z,100624.56
2023-05-12T00:17:25.418Z,100616.97
2023-05-12T00:19:52.329Z,100620.47
2023-05-12T00:22:19.292Z,100624.91
2023-05-12T00:24:46.247Z,100610.94
2023-05-12T00:27:13.998Z,100624.44
2023-05-12T00:29:40.720Z,100606.03
2023-05-12T00:32:08.327Z,100616.41
2023-05-12T00:34:35.199Z,100618.03
2023-05-12T00:37:02.173Z,100620.81
2023-05-12T00:39:29.043Z,100619.56
2023-05-12T00:41:57.611Z,100619.56
2023-05-12T00:44:24.523Z,100615.13
2023-05-12T00:46:52.834Z,100610.22
2023-05-12T00:49:20.521Z,100614.66
2023-05-12T00:51:47.517Z,100613.03
2023-05-12T00:54:14.362Z,100614.66
2023-05-12T00:56:41.291Z,100599.44
2023-05-12T00:59:08.987Z,100608.94
2023-05-12T01:01:39.709Z,100605.84
2023-05-12T01:04:06.865Z,100598.59
2023-05-12T01:06:41.264Z,100601.72
2023-05-12T01:09:09.443Z,100600.94
2023-05-12T01:11:37.683Z,100593.72
2023-05-12T01:14:05.192Z,100590.09
2023-05-12T01:16:50.557Z,100588.81
2023-05-12T01:19:44.054Z,100586.50
2023-05-12T01:22:12.799Z,100584.88
2023-05-12T01:24:51.386Z,100586.03
2023-05-12T01:27:20.505Z,100588.50
2023-05-12T01:29:48.746Z,100582.44
2023-05-12T01:32:18.712Z,100584.41
2023-05-12T01:34:45.836Z,100583.25
2023-05-12T01:37:12.945Z,100582.44
2023-05-12T01:39:40.970Z,100578.34
2023-05-12T01:42:10.853Z,100574.41
2023-05-12T01:44:37.720Z,100581.16
2023-05-12T01:47:04.793Z,100575.06
2023-05-12T01:49:32.998Z,100573.09
2023-05-12T01:51:59.879Z,100573.94
2023-05-12T01:54:29.957Z,100568.34
2023-05-12T01:56:56.906Z,100571.47
2023-05-12T01:59:24.661Z,100571.47
2023-05-12T02:01:52.683Z,100575.06
2023-05-12T02:04:27.703Z,100569.00
2023-05-12T02:06:55.999Z,100566.22
2023-05-12T02:09:23.090Z,100560.63
2023-05-12T02:11:50.586Z,100559.84
2023-05-12T02:14:17.357Z,100559.03
2023-05-12T02:16:44.744Z,100552.63
2023-05-12T02:19:11.816Z,100558.22
2023-05-12T02:21:38.509Z,100554.97
2023-05-12T02:24:05.521Z,100550.19
2023-05-12T02:26:32.255Z,100552.16
2023-05-12T02:28:59.444Z,100548.56
2023-05-12T02:31:26.560Z,100546.91
2023-05-12T02:33:54.133Z,100548.56
2023-05-12T02:36:20.868Z,100554.97
2023-05-12T02:38:47.532Z,100545.75
2023-05-12T02:41:14.940Z,100542.97
2023-05-12T02:43:42.085Z,100542.97
2023-05-12T02:46:08.836Z,100540.19
2023-05-12T02:48:35.783Z,100538.53
2023-05-12T02:51:02.536Z,100541.69
2023-05-12T02:53:29.443Z,100538.09
2023-05-12T02:55:56.333Z,100531.69
2023-05-12T02:58:23.403Z,100526.91
2023-05-12T03:00:56.874Z,100534.47
2023-05-12T03:03:30.280Z,100526.91
2023-05-12T03:05:57.332Z,100526.47
2023-05-12T03:08:24.330Z,100532.50
2023-05-12T03:10:51.083Z,100523.66
2023-05-12T03:13:17.800Z,100520.50
2023-05-12T03:15:44.604Z,100519.69
2023-05-12T03:18:11.619Z,100514.13
2023-05-12T03:20:38.509Z,100506.09
2023-05-12T03:23:05.518Z,100509.72
2023-05-12T03:25:32.781Z,100509.72
2023-05-12T03:27:59.716Z,100504.13
2023-05-12T03:30:26.852Z,100503.63
2023-05-12T03:32:53.795Z,100499.69
2023-05-12T03:35:21.039Z,100499.69
2023-05-12T03:37:48.794Z,100496.91
2023-05-12T03:40:18.644Z,100495.63
2023-05-12T03:42:46.775Z,100486.88
2023-05-12T03:45:13.567Z,100486.44
2023-05-12T03:47:40.809Z,100494.81
2023-05-12T03:50:08.515Z,100490.88
2023-05-12T03:52:38.454Z,100492.03
2023-05-12T03:55:07.121Z,100493.19
2023-05-12T03:57:36.362Z,100494.00
2023-05-12T04:00:03.962Z,100489.22
2023-05-12T04:02:39.423Z,100493.19
2023-05-12T04:05:08.675Z,100489.59
2023-05-12T04:07:35.785Z,100489.13
2023-05-12T04:10:03.083Z,100491.56
2023-05-12T04:12:30.077Z,100489.59
2023-05-12T04:14:57.554Z,100493.19
2023-05-12T04:17:24.580Z,100489.94
2023-05-12T04:19:53.477Z,100489.94
2023-05-12T04:22:20.264Z,100483.53
2023-05-12T04:24:47.101Z,100478.75
2023-05-12T04:27:14.683Z,100492.28
2023-05-12T04:29:42.145Z,100493.88
2023-05-12T04:32:09.231Z,100495.06
2023-05-12T04:34:36.487Z,100489.47
2023-05-12T04:37:03.364Z,100490.63
2023-05-12T04:39:30.384Z,100487.84
2023-05-12T04:41:59.911Z,100490.63
2023-05-12T04:44:27.750Z,100501.81
2023-05-12T04:46:56.381Z,100500.19
2023-05-12T04:49:23.572Z,100500.19
2023-05-12T04:51:50.356Z,100497.72
2023-05-12T04:54:17.162Z,100493.41
2023-05-12T04:56:43.835Z,100511.34
2023-05-12T04:59:11.743Z,100500.19
2023-05-12T05:01:39.611Z,100509.72
2023-05-12T05:04:06.689Z,100506.94
2023-05-12T05:06:33.347Z,100519.25
2023-05-12T05:09:01.014Z,100522.03
2023-05-12T05:11:28.115Z,100519.25
2023-05-12T05:13:55.069Z,100519.25
2023-05-12T05:16:22.928Z,100520.44
2023-05-12T05:18:50.689Z,100519.59
2023-05-12T05:21:17.586Z,100521.34
2023-05-12T05:23:44.529Z,100527.75
2023-05-12T05:26:12.229Z,100522.16
2023-05-12T05:28:41.869Z,100524.50
2023-05-12T05:31:08.767Z,100523.69
2023-05-12T05:33:35.835Z,100529.59
2023-05-12T05:36:03.758Z,100530.28
2023-05-12T05:38:32.735Z,100533.44
2023-05-12T05:40:59.553Z,100526.22
2023-05-12T05:43:27.397Z,100529.50
2023-05-12T05:45:56.081Z,100525.44
2023-05-12T05:48:23.365Z,100531.00
2023-05-12T05:50:54.182Z,100528.56
2023-05-12T05:53:23.014Z,100536.47
2023-05-12T05:55:50.682Z,100538.09
2023-05-12T05:58:17.581Z,100540.88
2023-05-12T06:00:45.882Z,100542.38
2023-05-12T06:03:12.814Z,100543.22
2023-05-12T06:05:42.197Z,100546.47
2023-05-12T06:08:11.163Z,100542.06
2023-05-12T06:10:38.147Z,100546.81
2023-05-12T06:13:05.082Z,100551.59
2023-05-12T06:15:32.854Z,100548.34
2023-05-12T06:17:59.796Z,100555.53
2023-05-12T06:20:26.709Z,100554.72
2023-05-12T06:22:53.467Z,100555.53
2023-05-12T06:25:20.356Z,100561.84
2023-05-12T06:27:47.280Z,100560.41
2023-05-12T06:30:15.997Z,100569.16
2023-05-12T06:32:43.141Z,100564.97
2023-05-12T06:35:10.246Z,100567.88
2023-05-12T06:37:37.150Z,100568.91
2023-05-12T06:40:04.370Z,100563.88
2023-05-12T06:42:31.179Z,100569.91
2023-05-12T06:44:58.145Z,100569.81
2023-05-12T06:47:24.805Z,100574.97
2023-05-12T06:49:51.596Z,100573.09
2023-05-12T06:52:20.522Z,100573.47
2023-05-12T06:54:47.249Z,100576.59
2023-05-12T06:57:13.958Z,100569.84
2023-05-12T06:59:40.614Z,100584.19
2023-05-12T07:02:07.536Z,100581.38
2023-05-12T07:04:35.916Z,100585.72
2023-05-12T07:07:02.695Z,100578.94
2023-05-12T07:09:29.452Z,100585.31
2023-05-12T07:11:56.181Z,100581.78
2023-05-12T07:14:22.837Z,100576.69
2023-05-12T07:16:49.858Z,100584.63
2023-05-12T07:19:16.464Z,100583.69
2023-05-12T07:21:43.777Z,100587.63
2023-05-12T07:24:10.581Z,100587.19
2023-05-12T07:26:37.547Z,100591.25
2023-05-12T07:29:05.486Z,100586.50
2023-05-12T07:31:33.906Z,100585.34
2023-05-12T07:34:00.936Z,100594.03
2023-05-12T07:36:28.371Z,100587.19
2023-05-12T07:38:55.072Z,100588.38
2023-05-12T07:41:21.990Z,100601.50
2023-05-12T07:43:48.856Z,100597.91
2023-05-12T07:46:15.756Z,100589.53
2023-05-12T07:48:42.640Z,100595.44
2023-05-12T07:51:09.474Z,100594.16
2023-05-12T07:53:36.223Z,100593.03
2023-05-12T07:56:03.067Z,100593.72
2023-05-12T07:58:29.943Z,100588.94
2023-05-12T08:00:59.068Z,100592.91
2023-05-12T08:03:26.277Z,100598.72
2023-05-12T08:05:53.374Z,100597.53
2023-05-12T08:08:20.189Z,100601.34
2023-05-12T08:10:47.056Z,100601.13
2023-05-12T08:13:13.968Z,100602.84
2023-05-12T08:15:40.851Z,100609.72
2023-05-12T08:18:07.576Z,100609.53
2023-05-12T08:20:34.978Z,100599.06
2023-05-12T08:23:01.834Z,100603.00
2023-05-12T08:25:30.509Z,100606.97
2023-05-12T08:27:59.375Z,100605.78
2023-05-12T08:30:27.254Z,100609.78
2023-05-12T08:32:55.221Z,100610.94
2023-05-12T08:35:23.042Z,100612.88
2023-05-12T08:37:49.949Z,100621.13
2023-05-12T08:40:22.110Z,100616.94
2023-05-12T08:42:56.643Z,100619.47
2023-05-12T08:45:23.923Z,100618.91
2023-05-12T08:47:53.938Z,100624.13
2023-05-12T08:50:22.823Z,100628.56
2023-05-12T08:52:51.468Z,100627.84
2023-05-12T08:55:20.680Z,100619.56
2023-05-12T08:57:48.983Z,100620.41
2023-05-12T09:00:16.488Z,100626.88
2023-05-12T09:02:52.684Z,100632.72
2023-05-12T09:05:20.647Z,100638.34
2023-05-12T09:07:50.024Z,100641.38
2023-05-12T09:10:32.998Z,100640.47
2023-05-12T09:13:23.985Z,100651.19
2023-05-12T09:15:53.921Z,100647.56
2023-05-12T09:18:20.810Z,100643.50
2023-05-12T09:20:47.785Z,100651.44
2023-05-12T09:23:22.295Z,100654.56
2023-05-12T09:26:01.250Z,100644.19
2023-05-12T09:28:38.263Z,100648.16
2023-05-12T09:31:16.129Z,100649.34
2023-05-12T09:33:43.017Z,100648.84
2023-05-12T09:36:09.787Z,100642.34
2023-05-12T09:38:36.707Z,100645.47
2023-05-12T09:41:03.617Z,100650.28
2023-05-12T09:43:30.745Z,100646.19
2023-05-12T09:45:57.601Z,100644.22
2023-05-12T09:48:26.832Z,100654.94
2023-05-12T09:50:54.321Z,100656.91
2023-05-12T09:53:22.924Z,100658.09
2023-05-12T09:55:49.789Z,100651.69
2023-05-12T09:58:18.596Z,100654.94
2023-05-12T10:03:17.767Z,100658.19
2023-05-12T10:05:57.613Z,100660.72
2023-05-12T10:08:29.996Z,100658.97
2023-05-12T10:10:59.255Z,100651.28
2023-05-12T10:13:26.507Z,100658.72
2023-05-12T10:15:56.960Z,100657.91
2023-05-12T10:18:25.261Z,100657.91
2023-05-12T10:20:56.230Z,100655.56
2023-05-12T10:23:23.513Z,100656.00
2023-05-12T10:25:50.224Z,100658.56
2023-05-12T10:28:17.500Z,100656.69
2023-05-12T10:30:45.534Z,100663.22
2023-05-12T10:33:12.539Z,100667.41
2023-05-12T10:35:40.192Z,100657.34
2023-05-12T10:38:17.703Z,100664.94
2023-05-12T10:41:00.088Z,100663.44
2023-05-12T10:43:42.392Z,100659.47
2023-05-12T10:46:17.622Z,100662.03
2023-05-12T10:48:53.143Z,100666.00
2023-05-12T10:51:24.454Z,100662.03
2023-05-12T10:53:54.730Z,100669.03
2023-05-12T10:56:27.415Z,100667.16
2023-05-12T10:59:13.072Z,100661.38
2023-05-12T11:01:42.518Z,100668.94
2023-05-12T11:04:13.964Z,100672.91
2023-05-12T11:06:42.580Z,100676.06
2023-05-12T11:09:13.830Z,100665.13
2023-05-12T11:11:41.020Z,100676.31
2023-05-12T11:14:09.609Z,100673.03
2023-05-12T11:16:43.338Z,100677.00
2023-05-12T11:19:10.631Z,100677.34
2023-05-12T11:21:38.582Z,100676.91
2023-05-12T11:24:05.490Z,100679.25
2023-05-12T11:26:34.279Z,100676.78
2023-05-12T11:29:04.625Z,100690.31
2023-05-12T11:31:31.588Z,100692.59
2023-05-12T11:34:12.646Z,100692.97
2023-05-12T11:36:42.525Z,100689.38
2023-05-12T11:39:41.404Z,100689.38
2023-05-12T11:42:13.633Z,100696.47
2023-05-12T11:44:48.664Z,100704.53
2023-05-12T11:47:16.785Z,100707.66
2023-05-12T11:49:55.214Z,100700.78
2023-05-12T11:52:24.232Z,100706.00
2023-05-12T11:54:58.707Z,100699.63
2023-05-12T11:57:38.041Z,100711.97
2023-05-12T12:00:09.782Z,100717.09
2023-05-12T12:02:38.729Z,100717.09
2023-05-12T12:05:16.026Z,100715.91
2023-05-12T12:07:42.825Z,100717.88
2023-05-12T12:10:13.815Z,100719.53
2023-05-12T12:12:41.775Z,100718.00
2023-05-12T12:15:09.936Z,100726.84
2023-05-12T12:17:37.229Z,100721.25
2023-05-12T12:20:04.291Z,100724.03
2023-05-12T12:22:34.766Z,100730.09
2023-05-12T12:25:02.494Z,100737.09
2023-05-12T12:27:29.681Z,100729.06
2023-05-12T12:29:56.407Z,100728.94
2023-05-12T12:32:23.585Z,100732.22
2023-05-12T12:34:50.396Z,100742.59
2023-05-12T12:37:17.295Z,100733.00
2023-05-12T12:39:44.200Z,100736.19
2023-05-12T12:42:10.966Z,100735.03
2023-05-12T12:44:37.732Z,100736.63
2023-05-12T12:47:05.181Z,100746.66
2023-05-12T12:49:32.109Z,100743.03
2023-05-12T12:51:58.934Z,100738.59
2023-05-12T12:54:27.473Z,100726.63
2023-05-12T12:56:55.730Z,100736.63
2023-05-12T12:59:22.808Z,100735.47
2023-05-12T13:01:49.587Z,100737.09
2023-05-12T13:04:19.595Z,100730.59
2023-05-12T13:06:46.733Z,100732.22
2023-05-12T13:09:13.979Z,100738.97
2023-05-12T13:11:40.748Z,100741.75
2023-05-12T13:14:08.308Z,100739.31
2023-05-12T13:16:35.148Z,100740.13
2023-05-12T13:19:02.116Z,100741.31
2023-05-12T13:21:29.037Z,100737.56
2023-05-12T13:23:55.865Z,100736.63
2023-05-12T13:26:22.768Z,100748.63
2023-05-12T13:28:49.433Z,100739.44
2023-05-12T13:31:16.313Z,100742.22
2023-05-12T13:33:43.149Z,100742.22
2023-05-12T13:36:09.856Z,100738.59
2023-05-12T13:38:37.200Z,100729.88
2023-05-12T13:41:03.897Z,100739.44
2023-05-12T13:43:30.706Z,100743.75
2023-05-12T13:45:57.419Z,100751.53
2023-05-12T13:48:24.129Z,100754.13
2023-05-12T13:50:50.931Z,100764.69
2023-05-12T13:53:17.675Z,100763.75
2023-05-12T13:55:45.140Z,100758.88
2023-05-12T13:58:11.793Z,100763.31
2023-05-12T14:00:38.530Z,100759.69
2023-05-12T14:03:05.390Z,100758.06
2023-05-12T14:05:32.515Z,100762.03
2023-05-12T14:07:59.325Z,100752.47
2023-05-12T14:10:26.147Z,100754.56
2023-05-12T14:12:52.939Z,100762.13
2023-05-12T14:15:29.475Z,100763.75
2023-05-12T14:18:00.084Z,100761.34
2023-05-12T14:20:26.973Z,100768.53
2023-05-12T14:22:54.105Z,100762.94
2023-05-12T14:25:21.155Z,100769.94
2023-05-12T14:27:48.226Z,100769.25
2023-05-12T14:30:15.211Z,100769.69
2023-05-12T14:32:42.385Z,100769.50
2023-05-12T14:35:12.082Z,100770.06
2023-05-12T14:37:38.797Z,100777.19
2023-05-12T14:40:07.352Z,100760.03
2023-05-12T14:42:34.105Z,100771.69
2023-05-12T14:45:00.796Z,100764.81
2023-05-12T14:47:27.453Z,100768.53
2023-05-12T14:49:54.575Z,100769.00
2023-05-12T14:52:21.491Z,100772.50
2023-05-12T14:54:48.310Z,100775.53
2023-05-12T14:57:15.096Z,100780.56
2023-05-12T14:59:41.978Z,100781.38
2023-05-12T15:02:08.717Z,100794.75
2023-05-12T15:04:35.697Z,100787.19
2023-05-12T15:07:02.500Z,100781.13
2023-05-12T15:09:29.358Z,100785.78
2023-05-12T15:11:56.525Z,100782.38
2023-05-12T15:16:50.231Z,100788.34
2023-05-12T15:19:17.619Z,100789.50
2023-05-12T15:21:44.357Z,100788.69
2023-05-12T15:24:11.119Z,100787.19
2023-05-12T15:26:40.523Z,100790.69
2023-05-12T15:29:07.693Z,100794.28
2023-05-12T15:31:35.362Z,100799.09
2023-05-12T15:34:02.408Z,100788.22
2023-05-12T15:36:29.672Z,100795.91
2023-05-12T15:38:56.669Z,100785.91
2023-05-12T15:41:23.635Z,100783.44
2023-05-12T15:43:50.369Z,100798.34
2023-05-12T15:46:17.317Z,100791.34
2023-05-12T15:48:44.133Z,100798.09
2023-05-12T15:51:10.988Z,100794.13
2023-05-12T15:53:37.815Z,100808.47
2023-05-12T15:56:05.310Z,100806.22
2023-05-12T15:58:32.321Z,100814.19
2023-05-12T16:00:59.426Z,100820.97
2023-05-12T16:03:26.617Z,100812.34
2023-05-12T16:05:53.443Z,100813.41
2023-05-12T16:08:20.513Z,100813.31
2023-05-12T16:10:47.342Z,100815.63
2023-05-12T16:13:14.533Z,100814.34
2023-05-12T16:15:41.248Z,100814.69
2023-05-12T16:18:10.884Z,100809.94
2023-05-12T16:20:38.992Z,100813.53
2023-05-12T16:23:05.876Z,100813.88
2023-05-12T16:25:32.552Z,100810.75
2023-05-12T16:27:59.551Z,100815.16
2023-05-12T16:30:26.607Z,100811.19
2023-05-12T16:32:53.694Z,100813.19
2023-05-12T16:35:20.925Z,100817.97
2023-05-12T16:37:48.139Z,100820.41
2023-05-12T16:40:15.449Z,100822.97
2023-05-12T16:42:42.761Z,100825.53
2023-05-12T16:45:10.965Z,100818.19
2023-05-12T16:47:38.008Z,100814.47
2023-05-12T16:50:05.472Z,100819.59
2023-05-12T16:52:32.227Z,100812.72
2023-05-12T16:54:58.962Z,100818.66
2023-05-12T16:57:25.867Z,100809.34
2023-05-12T16:59:52.559Z,100816.09
2023-05-12T17:02:19.688Z,100808.38
2023-05-12T17:04:46.726Z,100811.53
2023-05-12T17:07:13.552Z,100815.84
2023-05-12T17:09:40.320Z,100820.63
2023-05-12T17:12:07.988Z,100819.81
2023-05-12T17:14:34.958Z,100824.47
2023-05-12T17:17:02.404Z,100827.25
2023-05-12T17:19:29.247Z,100827.63
2023-05-12T17:21:56.131Z,100826.69
2023-05-12T17:24:22.932Z,100825.06
2023-05-12T17:26:49.747Z,100829.00
2023-05-12T17:29:17.104Z,100837.72
2023-05-12T17:31:43.979Z,100836.59
2023-05-12T17:34:10.812Z,100831.00
2023-05-12T17:36:37.545Z,100836.13
2023-05-12T17:39:04.407Z,100838.47
2023-05-12T17:41:31.171Z,100843.22
2023-05-12T17:43:57.917Z,100846.03
2023-05-12T17:46:24.668Z,100848.00
2023-05-12T17:48:51.502Z,100844.06
2023-05-12T17:51:18.700Z,100852.78
2023-05-12T17:53:46.266Z,100855.94
2023-05-12T17:56:12.915Z,100852.66
2023-05-12T17:58:39.835Z,100858.25
2023-05-12T18:01:06.727Z,100843.81
2023-05-12T18:03:34.673Z,100854.53
2023-05-12T18:06:02.592Z,100856.63
2023-05-12T18:08:29.411Z,100855.34
2023-05-12T18:10:56.022Z,100863.72
2023-05-12T18:13:23.279Z,100861.28
2023-05-12T18:15:50.274Z,100862.91
2023-05-12T18:18:17.160Z,100865.72
2023-05-12T18:20:43.973Z,100869.66
2023-05-12T18:23:10.708Z,100869.66
2023-05-12T18:25:37.663Z,100876.88
2023-05-12T18:28:06.656Z,100873.28
2023-05-12T18:30:33.674Z,100870.34
2023-05-12T18:33:00.424Z,100873.97
2023-05-12T18:35:27.351Z,100872.00
2023-05-12T18:37:54.023Z,100880.72
2023-05-12T18:40:20.823Z,100873.13
2023-05-12T18:42:47.502Z,100878.41
2023-05-12T18:45:14.255Z,100878.72
2023-05-12T18:47:41.477Z,100883.50
2023-05-12T18:50:08.641Z,100874.66
2023-05-12T18:52:35.899Z,100882.69
2023-05-12T18:55:02.948Z,100886.66
2023-05-12T18:57:29.815Z,100887.47
2023-05-12T18:59:56.432Z,100891.78
2023-05-12T19:02:23.292Z,100895.38
2023-05-12T19:04:50.303Z,100896.19
2023-05-12T19:07:17.204Z,100904.56
2023-05-12T19:09:44.363Z,100918.56
2023-05-12T19:12:11.843Z,100926.47
2023-05-12T19:14:40.173Z,100925.66
2023-05-12T19:17:07.581Z,100921.72
2023-05-12T19:19:34.909Z,100932.75
2023-05-12T19:22:02.575Z,100936.38
2023-05-12T19:24:29.615Z,100934.41
2023-05-12T19:26:57.455Z,100932.75
2023-05-12T19:29:24.515Z,100931.13
2023-05-12T19:31:53.141Z,100928.81
2023-05-12T19:34:20.641Z,100933.72
2023-05-12T19:36:47.725Z,100929.03
2023-05-12T19:39:14.774Z,100938.59
2023-05-12T19:41:41.766Z,100935.00
2023-05-12T19:44:08.554Z,100940.59
2023-05-12T19:46:35.550Z,100937.78
2023-05-12T19:49:02.434Z,100945.34
2023-05-12T19:51:29.630Z,100937.78
2023-05-12T19:53:56.620Z,100946.50
2023-05-12T19:56:24.237Z,100946.50
2023-05-12T19:58:52.284Z,100940.91
2023-05-12T20:01:19.057Z,100958.88
2023-05-12T20:03:45.992Z,100953.28
2023-05-12T20:06:12.812Z,100963.97
2023-05-12T20:08:39.818Z,100974.00
2023-05-12T20:11:07.313Z,100981.56
2023-05-12T20:13:34.063Z,100975.16
2023-05-12T20:16:00.930Z,100986.31
2023-05-12T20:18:28.711Z,100987.16
2023-05-12T20:20:55.664Z,100995.91
2023-05-12T20:23:22.418Z,100987.84
2023-05-12T20:25:49.130Z,101005.44
2023-05-12T20:28:15.922Z,101011.84
2023-05-12T20:30:42.593Z,101008.22
2023-05-12T20:33:09.387Z,101005.44
2023-05-12T20:35:36.201Z,101009.38
2023-05-12T20:38:03.193Z,101011.00
2023-05-12T20:40:30.088Z,101014.97
2023-05-12T20:42:57.188Z,101016.16
2023-05-12T20:45:24.042Z,101024.53
2023-05-12T20:47:51.218Z,101018.94
2023-05-12T20:50:18.222Z,101013.34
2023-05-12T20:52:46.876Z,101012.53
2023-05-12T20:55:13.648Z,101017.63
2023-05-12T20:57:41.302Z,101017.97
2023-05-12T21:00:10.843Z,101015.66
2023-05-12T21:02:38.185Z,101023.22
2023-05-12T21:05:05.668Z,101023.56
2023-05-12T21:07:33.393Z,101031.94
2023-05-12T21:10:00.933Z,101032.31
2023-05-12T21:12:28.035Z,101025.91
2023-05-12T21:14:55.209Z,101031.47
2023-05-12T21:17:22.372Z,101032.63
2023-05-12T21:19:49.316Z,101033.78
2023-05-12T21:22:16.132Z,101029.84
2023-05-12T21:24:43.026Z,101037.06
2023-05-12T21:27:10.148Z,101039.38
2023-05-12T21:29:36.953Z,101034.47
2023-05-12T21:32:04.090Z,101040.19
2023-05-12T21:34:33.693Z,101036.09
2023-05-12T21:37:00.899Z,101037.25
2023-05-12T21:39:28.044Z,101032.84
2023-05-12T21:41:55.010Z,101038.44
2023-05-12T21:44:21.754Z,101032.84
2023-05-12T21:46:48.474Z,101044.03
2023-05-12T21:49:15.513Z,101034.47
2023-05-12T21:51:42.269Z,101029.22
2023-05-12T21:54:09.106Z,101033.53
2023-05-12T21:56:35.950Z,101029.59
2023-05-12T21:59:02.714Z,101039.94
2023-05-12T22:01:30.040Z,101035.16
2023-05-12T22:03:58.883Z,101041.91
2023-05-12T22:06:27.076Z,101043.56
2023-05-12T22:08:54.264Z,101044.69
2023-05-12T22:11:21.702Z,101045.84
2023-05-12T22:13:48.818Z,101050.28
2023-05-12T22:16:16.299Z,101044.25
2023-05-12T22:18:43.790Z,101045.84
2023-05-12T22:21:11.173Z,101048.66
2023-05-12T22:23:38.566Z,101055.41
2023-05-12T22:26:05.623Z,101058.22
2023-05-12T22:28:32.372Z,101054.22
2023-05-12T22:30:59.320Z,101051.78
2023-05-12T22:33:26.364Z,101057.03
2023-05-12T22:35:53.199Z,101058.22
2023-05-12T22:38:20.119Z,101058.69
2023-05-12T22:40:47.100Z,101050.97
2023-05-12T22:43:14.085Z,101056.56
2023-05-12T22:45:41.052Z,101059.34
2023-05-12T22:48:07.830Z,101054.91
2023-05-12T22:50:34.801Z,101050.97
2023-05-12T22:53:01.786Z,101060.50
2023-05-12T22:55:31.076Z,101061.69
2023-05-12T22:57:58.314Z,101057.25
2023-05-12T23:00:25.174Z,101060.03
2023-05-12T23:02:51.990Z,101054.81
2023-05-12T23:05:19.202Z,101053.97
2023-05-12T23:07:46.414Z,101062.34
2023-05-12T23:10:13.184Z,101062.69
2023-05-12T23:12:40.046Z,101057.09
2023-05-12T23:15:07.716Z,101061.84
2023-05-12T23:17:34.480Z,101060.25
2023-05-12T23:20:01.136Z,101055.81
2023-05-12T23:22:27.937Z,101058.59
2023-05-12T23:24:55.102Z,101059.41
2023-05-12T23:27:21.818Z,101055.34
2023-05-12T23:29:48.537Z,101052.06
2023-05-12T23:32:15.742Z,101062.53
2023-05-12T23:34:42.905Z,101048.09
2023-05-12T23:37:10.006Z,101052.88
2023-05-12T23:39:36.853Z,101056.84
2023-05-12T23:42:03.977Z,101056.84
2023-05-12T23:44:30.857Z,101056.47
2023-05-12T23:46:57.664Z,101057.16
2023-05-12T23:49:24.673Z,101058.81
2023-05-12T23:51:51.539Z,101054.38
2023-05-12T23:54:19.359Z,101051.56
2023-05-12T23:56:46.149Z,101058.34
2023-05-12T23:59:12.839Z,101053.06
